createdAt,value
2023-02-26T00:00:48.785Z,0.00
2023-02-26T00:01:52.389Z,0.00
2023-02-26T00:04:33.814Z,0.00
2023-02-26T00:05:23.020Z,0.00
2023-02-26T00:06:26.497Z,0.00
2023-02-26T00:08:50.614Z,0.00
2023-02-26T00:09:50.297Z,0.00
2023-02-26T00:10:50.349Z,0.00
2023-02-26T00:11:56.183Z,0.00
2023-02-26T00:12:52.875Z,0.00
2023-02-26T00:15:00.444Z,0.00
2023-02-26T00:15:50.333Z,0.00
2023-02-26T00:16:50.278Z,0.00
2023-02-26T00:17:50.911Z,0.00
2023-02-26T00:18:50.294Z,0.00
2023-02-26T00:20:02.495Z,0.00
2023-02-26T00:20:54.395Z,0.00
2023-02-26T00:21:57.224Z,0.00
2023-02-26T00:22:51.600Z,0.00
2023-02-26T00:23:50.204Z,0.00
2023-02-26T00:25:03.002Z,0.00
2023-02-26T00:25:56.220Z,0.00
2023-02-26T00:26:51.254Z,0.00
2023-02-26T00:27:50.549Z,0.00
2023-02-26T00:28:53.785Z,0.00
2023-02-26T00:29:50.308Z,0.00
2023-02-26T00:30:50.261Z,0.00
2023-02-26T00:31:56.125Z,0.00
2023-02-26T00:32:53.233Z,0.00
2023-02-26T00:33:50.189Z,0.00
2023-02-26T00:34:50.142Z,0.00
2023-02-26T00:35:50.080Z,0.00
2023-02-26T00:36:59.529Z,0.00
2023-02-26T00:39:06.519Z,0.00
2023-02-26T00:39:51.026Z,0.00
2023-02-26T00:40:53.110Z,0.00
2023-02-26T00:41:51.009Z,0.00
2023-02-26T00:42:50.082Z,0.00
2023-02-26T00:43:50.025Z,0.00
2023-02-26T00:44:50.143Z,0.00
2023-02-26T00:45:51.464Z,0.00
2023-02-26T00:46:51.000Z,0.00
2023-02-26T00:47:50.668Z,0.00
2023-02-26T00:48:53.798Z,0.00
2023-02-26T00:49:50.072Z,0.00
2023-02-26T00:50:52.066Z,0.00
2023-02-26T00:51:50.433Z,0.00
2023-02-26T00:52:50.200Z,0.00
2023-02-26T00:53:52.184Z,0.00
2023-02-26T00:54:50.089Z,0.00
2023-02-26T00:55:50.734Z,0.00
2023-02-26T00:56:53.842Z,0.00
2023-02-26T00:58:22.146Z,0.00
2023-02-26T00:58:57.632Z,0.00
2023-02-26T00:59:55.325Z,0.00
2023-02-26T01:00:54.221Z,0.00
2023-02-26T01:01:58.015Z,0.00
2023-02-26T01:03:00.639Z,0.00
2023-02-26T01:03:56.128Z,0.00
2023-02-26T01:06:17.764Z,0.00
2023-02-26T01:07:17.173Z,0.00
2023-02-26T01:08:19.231Z,0.00
2023-02-26T01:09:20.243Z,0.00
2023-02-26T01:10:18.228Z,0.00
2023-02-26T01:11:19.492Z,0.00
2023-02-26T01:12:24.769Z,0.00
2023-02-26T01:13:26.427Z,0.00
2023-02-26T01:14:20.985Z,0.00
2023-02-26T01:15:27.381Z,0.00
2023-02-26T01:16:30.939Z,0.00
2023-02-26T01:17:25.570Z,0.00
2023-02-26T01:18:29.920Z,0.00
2023-02-26T01:20:25.856Z,0.00
2023-02-26T01:21:29.535Z,0.00
2023-02-26T01:22:30.328Z,0.00
2023-02-26T01:23:28.304Z,0.00
2023-02-26T01:24:24.834Z,0.00
2023-02-26T01:25:25.877Z,0.00
2023-02-26T01:26:25.285Z,0.00
2023-02-26T01:27:26.753Z,0.00
2023-02-26T01:28:29.421Z,0.00
2023-02-26T01:29:32.501Z,0.00
2023-02-26T01:31:45.489Z,0.00
2023-02-26T01:32:29.865Z,0.00
2023-02-26T01:33:30.886Z,0.00
2023-02-26T01:34:23.615Z,0.00
2023-02-26T01:35:30.444Z,0.00
2023-02-26T01:36:30.793Z,0.00
2023-02-26T01:37:30.470Z,0.00
2023-02-26T01:38:29.199Z,0.00
2023-02-26T01:39:32.570Z,0.00
2023-02-26T01:41:30.383Z,0.00
2023-02-26T01:43:26.962Z,0.00
2023-02-26T01:44:28.325Z,0.00
2023-02-26T01:45:27.705Z,0.00
2023-02-26T01:48:34.152Z,0.00
2023-02-26T01:49:32.818Z,0.00
2023-02-26T01:50:29.995Z,0.00
2023-02-26T01:51:20.433Z,0.00
2023-02-26T01:52:28.299Z,0.00
2023-02-26T01:53:31.018Z,0.00
2023-02-26T01:54:27.531Z,0.00
2023-02-26T01:55:34.926Z,0.00
2023-02-26T01:57:52.366Z,0.00
2023-02-26T01:59:34.630Z,0.00
2023-02-26T02:00:31.836Z,0.00
2023-02-26T02:01:31.895Z,0.00
2023-02-26T02:02:39.909Z,0.00
2023-02-26T02:03:34.014Z,0.00
2023-02-26T02:04:25.015Z,0.00
2023-02-26T02:05:34.299Z,0.00
2023-02-26T02:06:28.894Z,0.00
2023-02-26T02:07:27.522Z,0.00
2023-02-26T02:08:30.008Z,0.00
2023-02-26T02:09:28.397Z,0.00
2023-02-26T02:12:28.820Z,0.00
2023-02-26T02:13:41.428Z,0.00
2023-02-26T02:14:29.055Z,0.00
2023-02-26T02:15:32.764Z,0.00
2023-02-26T02:18:30.191Z,0.00
2023-02-26T02:19:26.466Z,0.00
2023-02-26T02:20:55.164Z,0.00
2023-02-26T02:21:29.238Z,0.00
2023-02-26T02:22:32.918Z,0.00
2023-02-26T02:25:18.587Z,0.00
2023-02-26T02:26:19.154Z,0.00
2023-02-26T02:29:31.161Z,0.00
2023-02-26T02:30:36.660Z,0.00
2023-02-26T02:31:32.191Z,0.00
2023-02-26T02:32:34.930Z,0.00
2023-02-26T02:33:30.709Z,0.00
2023-02-26T02:34:35.086Z,0.00
2023-02-26T02:36:14.423Z,0.00
2023-02-26T02:37:42.895Z,0.00
2023-02-26T02:38:39.674Z,0.00
2023-02-26T02:39:47.447Z,0.00
2023-02-26T02:40:42.371Z,0.00
2023-02-26T02:41:43.849Z,0.00
2023-02-26T02:42:39.721Z,0.00
2023-02-26T02:43:44.452Z,0.00
2023-02-26T02:44:48.090Z,0.00
2023-02-26T02:45:39.166Z,0.00
2023-02-26T02:46:44.184Z,0.00
2023-02-26T02:47:41.892Z,0.00
2023-02-26T02:48:38.014Z,0.00
2023-02-26T02:49:47.512Z,0.00
2023-02-26T02:50:37.922Z,0.00
2023-02-26T02:52:37.164Z,0.00
2023-02-26T02:53:33.392Z,0.00
2023-02-26T02:54:36.523Z,0.00
2023-02-26T02:55:38.581Z,0.00
2023-02-26T02:56:37.045Z,0.00
2023-02-26T02:57:37.441Z,0.00
2023-02-26T02:58:33.853Z,0.00
2023-02-26T02:59:30.403Z,0.00
2023-02-26T03:00:33.531Z,0.00
2023-02-26T03:01:35.697Z,0.00
2023-02-26T03:02:33.598Z,0.00
2023-02-26T03:03:30.558Z,0.00
2023-02-26T03:04:36.025Z,0.00
2023-02-26T03:06:41.896Z,0.00
2023-02-26T03:07:34.385Z,0.00
2023-02-26T03:08:37.991Z,0.00
2023-02-26T03:09:30.857Z,0.00
2023-02-26T03:10:30.415Z,0.00
2023-02-26T03:11:29.256Z,0.00
2023-02-26T03:12:29.319Z,0.00
2023-02-26T03:13:29.273Z,0.00
2023-02-26T03:14:31.015Z,0.00
2023-02-26T03:15:35.160Z,0.00
2023-02-26T03:16:30.880Z,0.00
2023-02-26T03:17:32.182Z,0.00
2023-02-26T03:18:29.846Z,0.00
2023-02-26T03:19:30.152Z,0.00
2023-02-26T03:20:32.985Z,0.00
2023-02-26T03:22:36.487Z,0.00
2023-02-26T03:23:31.356Z,0.00
2023-02-26T03:24:39.069Z,0.00
2023-02-26T03:25:33.035Z,0.00
2023-02-26T03:26:29.448Z,0.00
2023-02-26T03:27:32.703Z,0.00
2023-02-26T03:28:29.116Z,0.00
2023-02-26T03:29:29.169Z,0.00
2023-02-26T03:30:30.398Z,0.00
2023-02-26T03:31:33.594Z,0.00
2023-02-26T03:32:37.092Z,0.00
2023-02-26T03:33:32.932Z,0.00
2023-02-26T03:34:31.710Z,0.00
2023-02-26T03:35:29.852Z,0.00
2023-02-26T03:36:29.115Z,0.00
2023-02-26T03:37:30.344Z,0.00
2023-02-26T03:38:30.104Z,0.00
2023-02-26T03:39:32.989Z,0.00
2023-02-26T03:40:29.945Z,0.00
2023-02-26T03:41:38.349Z,0.00
2023-02-26T03:42:39.364Z,0.00
2023-02-26T03:43:33.490Z,0.00
2023-02-26T03:44:35.099Z,0.00
2023-02-26T03:45:30.079Z,0.00
2023-02-26T03:46:29.348Z,0.00
2023-02-26T03:47:30.140Z,0.00
2023-02-26T03:48:31.434Z,0.00
2023-02-26T03:49:28.970Z,0.00
2023-02-26T03:50:31.035Z,0.00
2023-02-26T03:51:28.802Z,0.00
2023-02-26T03:52:31.792Z,0.00
2023-02-26T03:53:28.877Z,0.00
2023-02-26T03:54:28.812Z,0.00
2023-02-26T03:55:33.273Z,0.00
2023-02-26T03:56:28.904Z,0.00
2023-02-26T03:57:28.873Z,0.00
2023-02-26T03:58:29.553Z,0.00
2023-02-26T03:59:28.820Z,0.00
2023-02-26T04:00:29.423Z,0.00
2023-02-26T04:01:28.821Z,0.00
2023-02-26T04:02:28.910Z,0.00
2023-02-26T04:03:28.819Z,0.00
2023-02-26T04:04:29.394Z,0.00
2023-02-26T04:05:28.947Z,0.00
2023-02-26T04:06:29.540Z,0.00
2023-02-26T04:07:28.771Z,0.00
2023-02-26T04:08:29.458Z,0.00
2023-02-26T04:09:31.256Z,0.00
2023-02-26T04:10:30.055Z,0.00
2023-02-26T04:11:28.630Z,0.00
2023-02-26T04:12:29.760Z,0.00
2023-02-26T04:13:28.580Z,0.00
2023-02-26T04:14:29.887Z,0.00
2023-02-26T04:15:29.655Z,0.00
2023-02-26T04:16:30.406Z,0.00
2023-02-26T04:17:33.921Z,0.00
2023-02-26T04:18:31.970Z,0.00
2023-02-26T04:19:32.176Z,0.00
2023-02-26T04:20:34.358Z,0.00
2023-02-26T04:21:30.355Z,0.00
2023-02-26T04:22:28.506Z,0.00
2023-02-26T04:23:29.521Z,0.00
2023-02-26T04:24:30.991Z,0.00
2023-02-26T04:25:34.859Z,0.00
2023-02-26T04:26:29.562Z,0.00
2023-02-26T04:27:33.074Z,0.00
2023-02-26T04:28:34.955Z,0.00
2023-02-26T04:29:31.284Z,0.00
2023-02-26T04:30:28.559Z,0.00
2023-02-26T04:31:38.601Z,0.00
2023-02-26T04:32:32.613Z,0.00
2023-02-26T04:33:28.536Z,0.00
2023-02-26T04:35:36.367Z,0.00
2023-02-26T04:36:29.885Z,0.00
2023-02-26T04:37:30.462Z,0.00
2023-02-26T04:38:28.385Z,0.00
2023-02-26T04:39:28.354Z,0.00
2023-02-26T04:40:28.446Z,0.00
2023-02-26T04:41:31.149Z,0.00
2023-02-26T04:42:29.641Z,0.00
2023-02-26T04:43:29.915Z,0.00
2023-02-26T04:44:28.894Z,0.00
2023-02-26T04:45:28.710Z,0.00
2023-02-26T04:46:28.701Z,0.00
2023-02-26T04:47:28.218Z,0.00
2023-02-26T04:48:28.276Z,0.00
2023-02-26T04:49:29.363Z,0.00
2023-02-26T04:50:31.295Z,0.00
2023-02-26T04:51:28.858Z,0.00
2023-02-26T04:52:28.927Z,0.00
2023-02-26T04:53:30.778Z,0.00
2023-02-26T04:54:31.327Z,0.00
2023-02-26T04:55:28.850Z,0.00
2023-02-26T04:56:29.106Z,0.00
2023-02-26T04:57:30.968Z,0.00
2023-02-26T04:58:28.976Z,0.00
2023-02-26T04:59:29.028Z,0.00
2023-02-26T05:00:32.857Z,0.00
2023-02-26T05:01:28.340Z,0.00
2023-02-26T05:02:28.250Z,0.00
2023-02-26T05:03:28.141Z,0.00
2023-02-26T05:04:29.730Z,0.00
2023-02-26T05:05:35.687Z,0.00
2023-02-26T05:06:37.036Z,0.00
2023-02-26T05:07:30.107Z,0.00
2023-02-26T05:08:31.940Z,0.00
2023-02-26T05:09:30.585Z,0.00
2023-02-26T05:10:28.207Z,0.00
2023-02-26T05:11:30.714Z,0.00
2023-02-26T05:12:30.564Z,0.00
2023-02-26T05:13:30.765Z,0.00
2023-02-26T05:14:28.069Z,0.00
2023-02-26T05:15:29.505Z,0.00
2023-02-26T05:16:29.728Z,0.00
2023-02-26T05:17:29.005Z,0.00
2023-02-26T05:18:28.178Z,0.00
2023-02-26T05:19:28.093Z,0.00
2023-02-26T05:20:42.055Z,0.00
2023-02-26T05:21:32.570Z,0.00
2023-02-26T05:22:28.399Z,0.00
2023-02-26T05:23:29.309Z,0.00
2023-02-26T05:24:28.068Z,0.00
2023-02-26T05:25:28.022Z,0.00
2023-02-26T05:26:28.060Z,0.00
2023-02-26T05:27:27.860Z,0.00
2023-02-26T05:28:27.878Z,0.00
2023-02-26T05:29:29.585Z,0.00
2023-02-26T05:30:28.397Z,0.00
2023-02-26T05:31:28.640Z,0.00
2023-02-26T05:32:27.950Z,0.00
2023-02-26T05:33:28.550Z,0.00
2023-02-26T05:34:27.813Z,0.00
2023-02-26T05:35:30.737Z,0.00
2023-02-26T05:36:29.388Z,0.00
2023-02-26T05:37:28.388Z,0.00
2023-02-26T05:38:27.835Z,0.00
2023-02-26T05:40:29.372Z,0.00
2023-02-26T05:41:32.067Z,0.00
2023-02-26T05:42:32.602Z,0.00
2023-02-26T05:43:35.599Z,0.00
2023-02-26T05:44:28.801Z,0.00
2023-02-26T05:46:34.252Z,0.00
2023-02-26T05:47:31.731Z,4.00
2023-02-26T05:48:34.459Z,0.00
2023-02-26T05:49:35.122Z,4.00
2023-02-26T05:50:29.937Z,4.00
2023-02-26T05:51:27.785Z,4.00
2023-02-26T05:52:29.732Z,4.00
2023-02-26T05:53:34.212Z,4.00
2023-02-26T05:54:29.090Z,4.00
2023-02-26T05:55:29.786Z,4.00
2023-02-26T05:56:28.934Z,8.00
2023-02-26T05:57:27.548Z,8.00
2023-02-26T05:58:31.518Z,8.00
2023-02-26T05:59:30.257Z,12.00
2023-02-26T06:00:28.932Z,12.00
2023-02-26T06:01:27.661Z,16.00
2023-02-26T06:02:27.508Z,16.00
2023-02-26T06:03:28.421Z,20.00
2023-02-26T06:04:28.852Z,16.00
2023-02-26T06:05:27.615Z,20.00
2023-02-26T06:06:28.382Z,20.00
2023-02-26T06:07:27.715Z,28.00
2023-02-26T06:08:27.878Z,28.00
2023-02-26T06:09:35.694Z,32.00
2023-02-26T06:10:29.413Z,40.00
2023-02-26T06:11:27.541Z,48.00
2023-02-26T06:12:28.303Z,56.00
2023-02-26T06:13:27.502Z,60.00
2023-02-26T06:14:27.354Z,72.00
2023-02-26T06:15:27.373Z,80.00
2023-02-26T06:16:27.752Z,92.00
2023-02-26T06:17:30.402Z,108.00
2023-02-26T06:18:27.969Z,120.00
2023-02-26T06:19:28.395Z,128.00
2023-02-26T06:20:27.327Z,132.00
2023-02-26T06:21:27.370Z,132.00
2023-02-26T06:22:27.863Z,132.00
2023-02-26T06:23:28.492Z,136.00
2023-02-26T06:24:27.312Z,132.00
2023-02-26T06:25:27.501Z,136.00
2023-02-26T06:26:27.583Z,160.00
2023-02-26T06:27:27.886Z,172.00
2023-02-26T06:28:27.271Z,176.00
2023-02-26T06:29:27.989Z,188.00
2023-02-26T06:30:27.301Z,200.00
2023-02-26T06:31:28.306Z,200.00
2023-02-26T06:32:30.211Z,208.00
2023-02-26T06:33:27.300Z,216.00
2023-02-26T06:34:28.686Z,220.00
2023-02-26T06:35:27.284Z,232.00
2023-02-26T06:36:28.054Z,236.00
2023-02-26T06:37:27.327Z,236.00
2023-02-26T06:38:27.193Z,252.00
2023-02-26T06:39:27.212Z,264.00
2023-02-26T06:40:27.175Z,276.00
2023-02-26T06:41:27.218Z,284.00
2023-02-26T06:42:28.086Z,304.00
2023-02-26T06:43:28.025Z,312.00
2023-02-26T06:44:27.142Z,328.00
2023-02-26T06:45:27.069Z,328.00
2023-02-26T06:46:28.067Z,344.00
2023-02-26T06:47:27.173Z,348.00
2023-02-26T06:48:27.874Z,364.00
2023-02-26T06:49:27.230Z,372.00
2023-02-26T06:50:27.042Z,388.00
2023-02-26T06:51:27.021Z,428.00
2023-02-26T06:52:27.140Z,448.00
2023-02-26T06:53:26.971Z,476.00
2023-02-26T06:54:38.518Z,508.00
2023-02-26T06:55:28.473Z,556.00
2023-02-26T06:56:32.239Z,660.00
2023-02-26T06:57:28.177Z,764.00
2023-02-26T06:58:26.955Z,812.00
2023-02-26T07:00:41.025Z,860.00
2023-02-26T07:01:28.049Z,900.00
2023-02-26T07:02:27.309Z,936.00
2023-02-26T07:03:26.911Z,956.00
2023-02-26T07:04:26.946Z,964.00
2023-02-26T07:05:26.821Z,964.00
2023-02-26T07:06:38.356Z,948.00
2023-02-26T07:07:27.860Z,960.00
2023-02-26T07:08:27.518Z,1012.00
2023-02-26T07:09:33.803Z,944.00
2023-02-26T07:10:27.744Z,888.00
2023-02-26T07:11:26.763Z,772.00
2023-02-26T07:12:28.464Z,684.00
2023-02-26T07:13:28.778Z,600.00
2023-02-26T07:14:30.857Z,568.00
2023-02-26T07:15:26.849Z,532.00
2023-02-26T07:16:28.784Z,524.00
2023-02-26T07:17:29.124Z,528.00
2023-02-26T07:18:26.769Z,508.00
2023-02-26T07:19:34.453Z,532.00
2023-02-26T07:20:27.692Z,560.00
2023-02-26T07:21:37.140Z,548.00
2023-02-26T07:22:33.321Z,540.00
2023-02-26T07:23:30.649Z,572.00
2023-02-26T07:24:27.608Z,576.00
2023-02-26T07:25:26.594Z,616.00
2023-02-26T07:26:33.545Z,672.00
2023-02-26T07:27:26.741Z,756.00
2023-02-26T07:28:26.699Z,884.00
2023-02-26T07:29:27.457Z,1048.00
2023-02-26T07:30:26.631Z,1268.00
2023-02-26T07:31:27.639Z,1312.00
2023-02-26T07:32:27.631Z,1328.00
2023-02-26T07:33:26.802Z,1268.00
2023-02-26T07:34:27.725Z,1232.00
2023-02-26T07:35:26.675Z,1232.00
2023-02-26T07:36:26.869Z,1248.00
2023-02-26T07:37:26.580Z,1372.00
2023-02-26T07:38:27.383Z,1504.00
2023-02-26T07:39:26.773Z,1672.00
2023-02-26T07:40:27.427Z,1888.00
2023-02-26T07:41:26.428Z,1864.00
2023-02-26T07:42:26.464Z,1836.00
2023-02-26T07:43:26.417Z,1932.00
2023-02-26T07:44:26.391Z,2024.00
2023-02-26T07:45:26.384Z,2176.00
2023-02-26T07:46:26.798Z,2476.00
2023-02-26T07:47:26.394Z,2484.00
2023-02-26T07:48:26.376Z,2564.00
2023-02-26T07:49:26.354Z,2596.00
2023-02-26T07:50:26.510Z,2636.00
2023-02-26T07:51:26.620Z,2692.00
2023-02-26T07:52:26.304Z,2632.00
2023-02-26T07:53:26.329Z,2664.00
2023-02-26T07:54:26.944Z,2972.00
2023-02-26T07:55:26.276Z,2832.00
2023-02-26T07:56:26.636Z,2648.00
2023-02-26T07:57:26.323Z,2800.00
2023-02-26T07:58:26.272Z,2692.00
2023-02-26T07:59:26.232Z,2980.00
2023-02-26T08:00:26.256Z,3232.00
2023-02-26T08:01:26.262Z,3404.00
2023-02-26T08:02:26.218Z,3612.00
2023-02-26T08:03:26.211Z,3664.00
2023-02-26T08:04:26.206Z,3356.00
2023-02-26T08:05:27.753Z,3800.00
2023-02-26T08:06:26.652Z,3472.00
2023-02-26T08:07:26.152Z,4380.00
2023-02-26T08:08:26.153Z,4892.00
2023-02-26T08:09:26.130Z,4200.00
2023-02-26T08:10:26.253Z,5616.00
2023-02-26T08:11:26.166Z,5756.00
2023-02-26T08:12:26.175Z,5844.00
2023-02-26T08:13:26.095Z,5500.00
2023-02-26T08:14:26.076Z,5896.00
2023-02-26T08:15:26.116Z,4876.00
2023-02-26T08:16:26.442Z,6192.00
2023-02-26T08:17:26.054Z,6296.00
2023-02-26T08:18:26.051Z,4988.00
2023-02-26T08:19:26.029Z,4140.00
2023-02-26T08:20:26.031Z,4688.00
2023-02-26T08:21:26.007Z,3628.00
2023-02-26T08:22:26.006Z,3252.00
2023-02-26T08:23:26.037Z,2872.00
2023-02-26T08:24:26.890Z,2648.00
2023-02-26T08:25:26.024Z,2680.00
2023-02-26T08:26:26.338Z,2336.00
2023-02-26T08:27:29.604Z,1944.00
2023-02-26T08:28:27.009Z,1812.00
2023-02-26T08:29:25.915Z,1640.00
2023-02-26T08:30:25.975Z,1580.00
2023-02-26T08:31:26.042Z,1600.00
2023-02-26T08:32:25.948Z,1572.00
2023-02-26T08:33:25.891Z,1552.00
2023-02-26T08:34:25.895Z,1532.00
2023-02-26T08:35:25.876Z,1440.00
2023-02-26T08:36:26.159Z,1376.00
2023-02-26T08:37:25.960Z,1404.00
2023-02-26T08:38:25.999Z,1308.00
2023-02-26T08:39:25.865Z,1304.00
2023-02-26T08:40:25.870Z,1316.00
2023-02-26T08:41:26.103Z,1344.00
2023-02-26T08:42:25.811Z,1416.00
2023-02-26T08:43:25.846Z,1540.00
2023-02-26T08:44:25.817Z,1688.00
2023-02-26T08:45:31.482Z,1736.00
2023-02-26T08:46:27.189Z,1784.00
2023-02-26T08:47:29.120Z,1904.00
2023-02-26T08:48:25.876Z,2008.00
2023-02-26T08:49:25.744Z,2032.00
2023-02-26T08:50:25.814Z,2060.00
2023-02-26T08:51:26.068Z,2068.00
2023-02-26T08:52:25.795Z,1980.00
2023-02-26T08:53:25.676Z,1964.00
2023-02-26T08:54:25.792Z,2036.00
2023-02-26T08:55:25.712Z,2100.00
2023-02-26T08:56:37.180Z,2136.00
2023-02-26T08:57:26.776Z,2220.00
2023-02-26T08:58:25.625Z,2476.00
2023-02-26T08:59:26.516Z,2968.00
2023-02-26T09:00:26.396Z,4172.00
2023-02-26T09:01:26.054Z,5404.00
2023-02-26T09:02:25.774Z,6184.00
2023-02-26T09:03:25.574Z,6332.00
2023-02-26T09:04:26.419Z,6388.00
2023-02-26T09:05:25.750Z,6860.00
2023-02-26T09:06:25.851Z,7060.00
2023-02-26T09:07:25.839Z,5008.00
2023-02-26T09:08:25.579Z,5200.00
2023-02-26T09:09:25.677Z,4480.00
2023-02-26T09:10:36.700Z,5444.00
2023-02-26T09:11:26.994Z,7200.00
2023-02-26T09:12:26.496Z,5516.00
2023-02-26T09:13:25.701Z,5312.00
2023-02-26T09:14:27.454Z,6008.00
2023-02-26T09:15:25.734Z,8456.00
2023-02-26T09:16:25.925Z,6188.00
2023-02-26T09:17:25.488Z,5780.00
2023-02-26T09:18:25.558Z,5760.00
2023-02-26T09:19:25.571Z,6388.00
2023-02-26T09:20:25.444Z,6940.00
2023-02-26T09:21:25.506Z,7116.00
2023-02-26T09:22:25.419Z,6736.00
2023-02-26T09:23:25.431Z,7064.00
2023-02-26T09:24:25.704Z,8528.00
2023-02-26T09:25:25.604Z,11984.00
2023-02-26T09:26:25.777Z,8136.00
2023-02-26T09:27:25.405Z,6912.00
2023-02-26T09:28:25.444Z,6520.00
2023-02-26T09:29:30.715Z,7020.00
2023-02-26T09:30:25.357Z,5968.00
2023-02-26T09:31:25.447Z,5212.00
2023-02-26T09:32:26.086Z,5576.00
2023-02-26T09:33:26.789Z,5740.00
2023-02-26T09:34:39.455Z,5324.00
2023-02-26T09:35:26.414Z,4576.00
2023-02-26T09:36:29.221Z,4252.00
2023-02-26T09:37:25.903Z,4032.00
2023-02-26T09:38:31.191Z,3760.00
2023-02-26T09:39:25.396Z,3492.00
2023-02-26T09:40:28.385Z,3528.00
2023-02-26T09:41:25.422Z,3488.00
2023-02-26T09:42:25.905Z,3444.00
2023-02-26T09:43:25.911Z,3512.00
2023-02-26T09:44:25.376Z,3504.00
2023-02-26T09:45:25.288Z,3460.00
2023-02-26T09:46:25.639Z,3328.00
2023-02-26T09:47:25.208Z,3168.00
2023-02-26T09:48:25.258Z,3040.00
2023-02-26T09:49:25.176Z,2992.00
2023-02-26T09:50:33.605Z,3000.00
2023-02-26T09:51:26.081Z,3072.00
2023-02-26T09:52:25.079Z,3184.00
2023-02-26T09:53:25.080Z,3360.00
2023-02-26T09:54:25.067Z,3580.00
2023-02-26T09:55:25.062Z,3900.00
2023-02-26T09:56:25.431Z,4304.00
2023-02-26T09:57:25.008Z,4500.00
2023-02-26T09:58:25.013Z,4828.00
2023-02-26T09:59:24.999Z,5260.00
2023-02-26T10:00:24.991Z,5008.00
2023-02-26T10:01:24.966Z,4944.00
2023-02-26T10:02:24.957Z,5268.00
2023-02-26T10:03:24.948Z,5132.00
2023-02-26T10:04:25.025Z,4988.00
2023-02-26T10:05:24.942Z,4984.00
2023-02-26T10:06:25.367Z,4880.00
2023-02-26T10:07:24.908Z,4580.00
2023-02-26T10:08:24.912Z,4244.00
2023-02-26T10:09:47.396Z,4056.00
2023-02-26T10:11:01.973Z,4036.00
2023-02-26T10:11:24.874Z,4060.00
2023-02-26T10:12:24.879Z,4104.00
2023-02-26T10:14:33.522Z,3896.00
2023-02-26T10:15:25.197Z,3776.00
2023-02-26T10:16:25.094Z,3792.00
2023-02-26T10:17:24.804Z,3752.00
2023-02-26T10:18:24.792Z,3744.00
2023-02-26T10:19:26.780Z,3740.00
2023-02-26T10:20:26.494Z,3788.00
2023-02-26T10:21:28.235Z,3704.00
2023-02-26T10:22:30.062Z,3672.00
2023-02-26T10:24:52.142Z,4004.00
2023-02-26T10:25:52.219Z,4108.00
2023-02-26T10:26:52.119Z,4016.00
2023-02-26T10:27:52.113Z,4044.00
2023-02-26T10:28:52.109Z,4148.00
2023-02-26T10:29:52.124Z,4168.00
2023-02-26T10:30:52.108Z,4296.00
2023-02-26T10:31:52.190Z,4288.00
2023-02-26T10:32:52.108Z,4032.00
2023-02-26T10:33:52.053Z,3512.00
2023-02-26T10:34:52.985Z,3200.00
2023-02-26T10:35:52.039Z,3108.00
2023-02-26T10:36:52.014Z,3156.00
2023-02-26T10:37:52.001Z,3248.00
2023-02-26T10:38:51.987Z,3468.00
2023-02-26T10:39:51.980Z,3588.00
2023-02-26T10:40:51.989Z,3488.00
2023-02-26T10:41:51.953Z,3388.00
2023-02-26T10:42:51.965Z,3384.00
2023-02-26T10:43:51.932Z,3400.00
2023-02-26T10:44:51.928Z,3384.00
2023-02-26T10:45:51.969Z,3188.00
2023-02-26T10:46:51.919Z,3032.00
2023-02-26T10:47:51.897Z,2960.00
2023-02-26T10:48:51.881Z,2796.00
2023-02-26T10:49:51.890Z,2620.00
2023-02-26T10:50:51.893Z,2472.00
2023-02-26T10:51:51.858Z,2260.00
2023-02-26T10:52:51.844Z,2068.00
2023-02-26T10:53:51.935Z,1968.00
2023-02-26T10:54:51.814Z,1932.00
2023-02-26T10:55:51.822Z,1940.00
2023-02-26T10:56:51.812Z,1928.00
2023-02-26T10:57:51.789Z,1884.00
2023-02-26T10:58:51.775Z,1868.00
2023-02-26T10:59:51.902Z,1924.00
2023-02-26T11:00:51.860Z,2152.00
2023-02-26T11:01:51.758Z,2036.00
2023-02-26T11:02:51.747Z,2056.00
2023-02-26T11:03:51.796Z,2288.00
2023-02-26T11:04:59.259Z,2420.00
2023-02-26T11:05:52.724Z,2324.00
2023-02-26T11:06:51.716Z,2368.00
2023-02-26T11:07:51.697Z,2684.00
2023-02-26T11:08:51.705Z,4032.00
2023-02-26T11:09:51.680Z,7716.00
2023-02-26T11:10:51.689Z,6888.00
2023-02-26T11:11:51.647Z,5236.00
2023-02-26T11:12:51.674Z,4000.00
2023-02-26T11:13:51.644Z,3972.00
2023-02-26T11:14:51.629Z,5128.00
2023-02-26T11:15:51.721Z,3668.00
2023-02-26T11:16:51.608Z,3108.00
2023-02-26T11:17:51.600Z,2732.00
2023-02-26T11:18:51.584Z,2372.00
2023-02-26T11:19:51.569Z,2192.00
2023-02-26T11:20:51.567Z,2004.00
2023-02-26T11:21:51.563Z,1924.00
2023-02-26T11:22:51.549Z,1868.00
2023-02-26T11:23:51.526Z,1884.00
2023-02-26T11:24:51.520Z,1992.00
2023-02-26T11:25:51.518Z,2176.00
2023-02-26T11:26:51.499Z,2520.00
2023-02-26T11:27:51.514Z,3208.00
2023-02-26T11:28:51.472Z,9296.00
2023-02-26T11:29:51.463Z,6840.00
2023-02-26T11:30:51.620Z,10748.00
2023-02-26T11:31:51.605Z,10980.00
2023-02-26T11:32:51.474Z,11152.00
2023-02-26T11:33:51.416Z,12988.00
2023-02-26T11:34:51.425Z,13396.00
2023-02-26T11:35:51.413Z,13652.00
2023-02-26T11:36:51.386Z,15648.00
2023-02-26T11:37:51.385Z,12028.00
2023-02-26T11:38:51.372Z,5944.00
2023-02-26T11:39:51.351Z,4720.00
2023-02-26T11:40:51.342Z,3652.00
2023-02-26T11:41:51.343Z,3028.00
2023-02-26T11:42:51.403Z,2772.00
2023-02-26T11:43:52.281Z,2512.00
2023-02-26T11:44:51.303Z,2300.00
2023-02-26T11:45:51.340Z,2180.00
2023-02-26T11:46:52.080Z,2224.00
2023-02-26T11:47:51.291Z,2220.00
2023-02-26T11:48:51.274Z,2312.00
2023-02-26T11:49:51.260Z,2352.00
2023-02-26T11:50:51.238Z,2424.00
2023-02-26T11:51:51.241Z,2464.00
2023-02-26T11:52:51.223Z,2488.00
2023-02-26T11:53:51.308Z,2564.00
2023-02-26T11:54:51.334Z,2696.00
2023-02-26T11:56:04.246Z,14880.00
2023-02-26T11:58:09.693Z,65824.00
2023-02-26T12:00:03.493Z,96896.00
2023-02-26T12:01:01.995Z,94464.00
2023-02-26T12:02:12.481Z,93152.00
2023-02-26T12:05:00.388Z,92672.00
2023-02-26T12:05:51.074Z,91840.00
2023-02-26T12:06:51.076Z,89632.00
2023-02-26T12:07:51.817Z,85824.00
2023-02-26T12:08:51.046Z,97568.00
2023-02-26T12:09:51.174Z,93248.00
2023-02-26T12:10:51.036Z,32160.00
2023-02-26T12:11:51.026Z,22048.00
2023-02-26T12:12:51.002Z,23744.00
2023-02-26T12:13:51.022Z,20704.00
2023-02-26T12:14:52.037Z,10456.00
2023-02-26T12:15:51.034Z,9904.00
2023-02-26T12:16:50.969Z,11812.00
2023-02-26T12:17:50.989Z,11720.00
2023-02-26T12:18:50.978Z,8600.00
2023-02-26T12:19:50.936Z,10336.00
2023-02-26T12:20:50.919Z,9228.00
2023-02-26T12:21:50.920Z,9020.00
2023-02-26T12:22:50.906Z,8984.00
2023-02-26T12:23:50.887Z,9004.00
2023-02-26T12:24:50.891Z,8748.00
2023-02-26T12:25:50.868Z,9008.00
2023-02-26T12:26:50.875Z,10224.00
2023-02-26T12:27:50.851Z,6488.00
2023-02-26T12:28:50.845Z,5988.00
2023-02-26T12:29:50.845Z,5656.00
2023-02-26T12:30:50.851Z,5672.00
2023-02-26T12:31:50.873Z,5424.00
2023-02-26T12:32:50.804Z,19168.00
2023-02-26T12:33:50.791Z,10196.00
2023-02-26T12:34:50.777Z,60256.00
2023-02-26T12:35:50.767Z,10072.00
2023-02-26T12:36:50.774Z,13292.00
2023-02-26T12:37:50.744Z,11644.00
2023-02-26T12:38:50.736Z,17344.00
2023-02-26T12:39:50.728Z,12348.00
2023-02-26T12:40:50.739Z,6664.00
2023-02-26T12:41:50.715Z,7968.00
2023-02-26T12:42:50.711Z,5536.00
2023-02-26T12:43:50.697Z,5032.00
2023-02-26T12:44:50.682Z,7452.00
2023-02-26T12:45:50.660Z,6084.00
2023-02-26T12:46:50.740Z,6836.00
2023-02-26T12:47:50.641Z,50272.00
2023-02-26T12:48:51.605Z,96096.00
2023-02-26T12:49:50.616Z,14860.00
2023-02-26T12:50:50.605Z,21824.00
2023-02-26T12:51:50.615Z,52928.00
2023-02-26T12:52:50.595Z,16128.00
2023-02-26T12:53:50.579Z,34848.00
2023-02-26T12:54:50.610Z,23488.00
2023-02-26T12:55:50.556Z,10932.00
2023-02-26T12:56:50.566Z,6788.00
2023-02-26T12:57:50.536Z,5768.00
2023-02-26T12:58:50.528Z,5440.00
2023-02-26T12:59:50.516Z,5328.00
2023-02-26T13:00:50.529Z,8928.00
2023-02-26T13:02:00.390Z,8720.00
2023-02-26T13:02:51.513Z,6552.00
2023-02-26T13:03:50.540Z,5956.00
2023-02-26T13:04:50.492Z,5228.00
2023-02-26T13:05:50.459Z,4776.00
2023-02-26T13:06:50.443Z,4460.00
2023-02-26T13:07:50.443Z,4136.00
2023-02-26T13:08:50.421Z,3712.00
2023-02-26T13:09:50.411Z,3360.00
2023-02-26T13:10:50.402Z,3072.00
2023-02-26T13:11:50.387Z,2940.00
2023-02-26T13:12:50.407Z,2892.00
2023-02-26T13:13:50.365Z,2856.00
2023-02-26T13:14:50.362Z,2832.00